Dritto — IIOV2 — position and weather

sailwx.info

Track history (hours):
 
Tides and Currents Weather Stations Pressure Air Temp Water Temp Dewpoint Dewpoint Depression Visibility Wind Speed Wind Dir Waves Ship Positions

Dritto

Last reported at 2017-Nov-17 23:00 UTC. Time now 2017-Nov-17 23:22 UTC.
Position N 40°29' E 017°13'.

Length 27 m; draft 5.5 m.

Type: Tug. MMSI: 247269900.

Date/timePositionNaut miles runAvg speedWind from/ knotsBaromVisibWave heightAir tempDewpointWater temp
2017-Nov-17 23:00N 40°29' E 017°13'0 0.0
2017-Nov-17 22:30N 40°29' E 017°13'0 0.0
2017-Nov-17 22:00N 40°29' E 017°13'0 0.0
2017-Nov-17 21:30N 40°29' E 017°13'0 0.0
2017-Nov-17 21:00N 40°29' E 017°13'0 0.0
2017-Nov-17 20:30N 40°29' E 017°13'0 0.0
2017-Nov-17 19:57N 40°29' E 017°13'0 0.0
2017-Nov-17 19:27N 40°29' E 017°13'0 0.0
2017-Nov-17 19:00N 40°29' E 017°13'0 0.0
2017-Nov-17 18:30N 40°29' E 017°13'0 0.0
2017-Nov-17 18:00N 40°29' E 017°13'0 0.0
2017-Nov-17 17:30N 40°29' E 017°13'0 0.0
2017-Nov-17 17:00N 40°29' E 017°13'0 0.0
2017-Nov-17 16:30N 40°29' E 017°13'0 0.0
2017-Nov-17 16:00N 40°29' E 017°13'0 0.0
2017-Nov-17 15:30N 40°29' E 017°13'0 0.0
2017-Nov-17 15:00N 40°29' E 017°13'0 0.0
2017-Nov-17 14:30N 40°29' E 017°13'0 0.0
2017-Nov-17 13:57N 40°29' E 017°13'0 0.0
2017-Nov-17 13:30N 40°29' E 017°13'0 0.0
2017-Nov-17 13:00N 40°29' E 017°13'0 0.0
2017-Nov-17 12:30N 40°29' E 017°13'0 0.0
2017-Nov-17 11:57N 40°29' E 017°13'0 0.0
2017-Nov-17 11:30N 40°29' E 017°13'0 0.0
2017-Nov-17 11:00N 40°29' E 017°13'0 0.0
2017-Nov-17 10:30N 40°29' E 017°13'1 3.0
2017-Nov-17 10:00N 40°28' E 017°12'0 1.0
2017-Nov-17 09:30N 40°28' E 017°12'1 1.5
2017-Nov-17 09:00N 40°28' E 017°12'1 2.8
2017-Nov-17 08:30N 40°29' E 017°13'0 0.0
2017-Nov-17 08:00N 40°29' E 017°13'0 0.0
2017-Nov-17 07:30N 40°29' E 017°13'0 0.0
2017-Nov-17 07:00N 40°29' E 017°13'0 0.0
2017-Nov-17 06:30N 40°29' E 017°13'0 0.0
2017-Nov-17 06:00N 40°29' E 017°13'0 0.0
2017-Nov-17 05:30N 40°29' E 017°13'0 0.0
2017-Nov-17 05:00N 40°29' E 017°13'0 0.0
2017-Nov-17 04:30N 40°29' E 017°13'0 0.0
2017-Nov-17 04:00N 40°29' E 017°13'0 0.0
2017-Nov-17 03:30N 40°29' E 017°13'0 0.0
2017-Nov-17 03:00N 40°29' E 017°13'0 0.0
2017-Nov-17 02:30N 40°29' E 017°13'0 0.0
2017-Nov-17 02:00N 40°29' E 017°13'0 0.0
2017-Nov-17 01:30N 40°29' E 017°13'2 4.8
2017-Nov-17 01:00N 40°29' E 017°10'1 2.7
2017-Nov-17 00:28N 40°30' E 017°10'0 0.1
2017-Nov-16 23:59N 40°30' E 017°09'0 0.1
2017-Nov-16 23:29N 40°30' E 017°09'2 3.7
2017-Nov-16 23:01N 40°29' E 017°11'2 3.7
2017-Nov-16 22:29N 40°29' E 017°13'0 0.0
2017-Nov-16 21:59N 40°29' E 017°13'0 0.0
2017-Nov-16 21:29N 40°29' E 017°13'1 2.8
2017-Nov-16 21:00N 40°28' E 017°14'1 2.2
2017-Nov-16 20:30N 40°27' E 017°15'0 0.5
2017-Nov-16 20:01N 40°27' E 017°14'0 0.2
2017-Nov-16 19:30N 40°27' E 017°15'1 2.1
2017-Nov-16 19:00N 40°27' E 017°13'2 3.1
2017-Nov-16 18:30N 40°29' E 017°13'3 6.4
2017-Nov-16 18:00N 40°29' E 017°09'1 1.4
2017-Nov-16 17:29N 40°30' E 017°10'1 2.5
2017-Nov-16 16:58N 40°30' E 017°08'1 2.7
2017-Nov-16 16:30N 40°29' E 017°09'3 6.0
2017-Nov-16 16:00N 40°29' E 017°13'0 0.5
2017-Nov-16 15:29N 40°29' E 017°13'0 0.0
2017-Nov-16 14:58N 40°29' E 017°13'0 0.0
2017-Nov-16 14:29N 40°29' E 017°13'0 0.0
2017-Nov-16 13:58N 40°29' E 017°13'0 0.0
2017-Nov-16 13:28N 40°29' E 017°13'0 0.0
2017-Nov-16 12:58N 40°29' E 017°13'0 0.0
2017-Nov-16 12:28N 40°29' E 017°13'0 0.0
2017-Nov-16 11:59N 40°29' E 017°13'0 0.0
2017-Nov-16 11:29N 40°29' E 017°13'0 0.0
2017-Nov-16 10:59N 40°29' E 017°13'0 0.0
2017-Nov-16 10:28N 40°29' E 017°13'0 0.0
2017-Nov-16 09:59N 40°29' E 017°13'0 0.0
2017-Nov-16 09:29N 40°29' E 017°13'0 0.0
2017-Nov-16 08:58N 40°29' E 017°13'0 0.0
2017-Nov-16 08:28N 40°29' E 017°13'0 0.0
2017-Nov-16 07:58N 40°29' E 017°13'0 0.0
2017-Nov-16 07:28N 40°29' E 017°13'0 0.0
2017-Nov-16 06:58N 40°29' E 017°13'0 0.0
2017-Nov-16 06:28N 40°29' E 017°13'0 0.0
2017-Nov-16 05:58N 40°29' E 017°13'0 0.0
2017-Nov-16 05:29N 40°29' E 017°13'0 0.0
2017-Nov-16 04:59N 40°29' E 017°13'0 0.0
2017-Nov-16 04:29N 40°29' E 017°13'0 0.0
2017-Nov-16 03:59N 40°29' E 017°13'0 0.0
2017-Nov-16 03:29N 40°29' E 017°13'0 0.0
2017-Nov-16 02:59N 40°29' E 017°13'0 0.0
2017-Nov-16 02:29N 40°29' E 017°13'0 0.0
2017-Nov-16 01:58N 40°29' E 017°13'0 0.0
2017-Nov-16 01:29N 40°29' E 017°13'0 0.0
2017-Nov-16 00:59N 40°29' E 017°13'0 0.0
2017-Nov-16 00:29N 40°29' E 017°13'0 0.0
2017-Nov-15 23:58N 40°29' E 017°13'0 0.0
2017-Nov-15 23:29N 40°29' E 017°13'0 0.0
2017-Nov-15 22:59N 40°29' E 017°13'0 0.0
2017-Nov-15 22:29N 40°29' E 017°13'0 0.0
2017-Nov-15 21:58N 40°29' E 017°13'0 0.0
2017-Nov-15 21:28N 40°29' E 017°13'0 0.0
2017-Nov-15 20:59N 40°29' E 017°13'0 0.0
2017-Nov-15 20:28N 40°29' E 017°13'0 0.0
2017-Nov-15 19:55N 40°29' E 017°13'0 0.0
2017-Nov-15 19:28N 40°29' E 017°13'0 0.0
2017-Nov-15 18:59N 40°29' E 017°13'0 0.0
2017-Nov-15 18:29N 40°29' E 017°13'0 0.0
2017-Nov-15 17:58N 40°29' E 017°13'0 0.0
2017-Nov-15 17:29N 40°29' E 017°13'0 0.0
2017-Nov-15 16:59N 40°29' E 017°13'0 0.0
2017-Nov-15 16:29N 40°29' E 017°13'0 0.0
2017-Nov-15 15:58N 40°29' E 017°13'0 0.0
2017-Nov-15 15:29N 40°29' E 017°13'0 0.0
2017-Nov-15 14:59N 40°29' E 017°13'0 0.0
2017-Nov-15 14:29N 40°29' E 017°13'0 0.0
2017-Nov-15 13:59N 40°29' E 017°13'0 0.0
2017-Nov-15 13:28N 40°29' E 017°13'0 0.0
2017-Nov-15 12:59N 40°29' E 017°13'0 0.0
2017-Nov-15 12:29N 40°29' E 017°13'0 0.0
2017-Nov-15 11:59N 40°29' E 017°13'0 0.0
2017-Nov-15 11:28N 40°29' E 017°13'0 0.0
2017-Nov-15 10:58N 40°29' E 017°13'0 0.0
2017-Nov-15 10:28N 40°29' E 017°13'0 0.0
2017-Nov-15 09:58N 40°29' E 017°13'0 0.0
2017-Nov-15 09:29N 40°29' E 017°13'0 0.0
2017-Nov-15 08:59N 40°29' E 017°13'0 0.0
2017-Nov-15 08:29N 40°29' E 017°13'0 0.2
2017-Nov-15 08:00N 40°29' E 017°13'1 2.2
2017-Nov-15 07:30N 40°28' E 017°13'2 3.1
2017-Nov-15 07:00N 40°27' E 017°14'0 0.1
2017-Nov-15 06:30N 40°27' E 017°14'2 4.1
2017-Nov-15 05:59N 40°29' E 017°13'0 0.0
2017-Nov-15 05:29N 40°29' E 017°13'0 0.0
2017-Nov-15 04:59N 40°29' E 017°13'0 0.0
2017-Nov-15 04:29N 40°29' E 017°13'0 0.0
2017-Nov-15 03:59N 40°29' E 017°13'0 0.0
2017-Nov-15 03:29N 40°29' E 017°13'0 0.0
2017-Nov-15 02:59N 40°29' E 017°13'0 0.0
2017-Nov-15 02:29N 40°29' E 017°13'0 0.0
2017-Nov-15 01:59N 40°29' E 017°13'0 0.0
2017-Nov-15 01:29N 40°29' E 017°13'0 0.0
2017-Nov-15 00:59N 40°29' E 017°13'0 0.0
2017-Nov-15 00:29N 40°29' E 017°13'0 0.0
2017-Nov-14 23:59N 40°29' E 017°13'0 0.0
2017-Nov-14 23:29N 40°29' E 017°13'0 0.0
2017-Nov-14 22:59N 40°29' E 017°13'0 0.0
2017-Nov-14 22:29N 40°29' E 017°13'0 0.0
2017-Nov-14 21:59N 40°29' E 017°13'0 0.0
2017-Nov-14 21:29N 40°29' E 017°13'0 0.0
2017-Nov-14 20:59N 40°29' E 017°13'0 0.0
2017-Nov-14 20:29N 40°29' E 017°13'0 0.0
2017-Nov-14 19:59N 40°29' E 017°13'0 0.0
2017-Nov-14 19:29N 40°29' E 017°13'0 0.0
2017-Nov-14 18:59N 40°29' E 017°13'0 0.0
2017-Nov-14 18:29N 40°29' E 017°13'0 0.0
2017-Nov-14 17:59N 40°29' E 017°13'0 0.0
2017-Nov-14 17:29N 40°29' E 017°13'0 0.0
2017-Nov-14 16:59N 40°29' E 017°13'0 0.0
2017-Nov-14 16:29N 40°29' E 017°13'0 0.0
2017-Nov-14 15:59N 40°29' E 017°13'0 0.0
2017-Nov-14 15:29N 40°29' E 017°13'0 0.0
2017-Nov-14 14:59N 40°29' E 017°13'0 0.0
2017-Nov-14 14:29N 40°29' E 017°13'0 0.0
2017-Nov-14 13:59N 40°29' E 017°13'0 0.0
2017-Nov-14 13:29N 40°29' E 017°13'0 0.0
2017-Nov-14 12:59N 40°29' E 017°13'0 0.0
2017-Nov-14 12:29N 40°29' E 017°13'0 0.0
2017-Nov-14 11:59N 40°29' E 017°13'0 0.0
2017-Nov-14 11:29N 40°29' E 017°13'0 0.0
2017-Nov-14 10:59N 40°29' E 017°13'0 0.0
2017-Nov-14 10:29N 40°29' E 017°13'0 0.0
2017-Nov-14 09:59N 40°29' E 017°13'0 0.0
2017-Nov-14 09:29N 40°29' E 017°13'0 0.0
2017-Nov-14 08:59N 40°29' E 017°13'0 0.0
2017-Nov-14 08:29N 40°29' E 017°13'0 0.0
2017-Nov-14 07:59N 40°29' E 017°13'0 0.0
2017-Nov-14 07:29N 40°29' E 017°13'0 0.0
2017-Nov-14 06:59N 40°29' E 017°13'0 0.0
2017-Nov-14 06:29N 40°29' E 017°13'0 0.0
2017-Nov-14 05:59N 40°29' E 017°13'0 0.0
2017-Nov-14 05:29N 40°29' E 017°13'0 0.0
2017-Nov-14 04:59N 40°29' E 017°13'0 0.0
2017-Nov-14 04:29N 40°29' E 017°13'0 0.0
2017-Nov-14 03:59N 40°29' E 017°13'0 0.0
2017-Nov-14 03:29N 40°29' E 017°13'0 0.0
2017-Nov-14 02:59N 40°29' E 017°13'0 0.0
2017-Nov-14 02:29N 40°29' E 017°13'0 0.0
2017-Nov-14 01:59N 40°29' E 017°13'0 0.0
2017-Nov-14 01:29N 40°29' E 017°13'0 0.0
2017-Nov-14 00:59N 40°29' E 017°13'0 0.0
2017-Nov-14 00:29N 40°29' E 017°13'0 0.0
2017-Nov-13 23:59N 40°29' E 017°13'0 0.0
2017-Nov-13 23:29N 40°29' E 017°13'0 0.0
2017-Nov-13 22:59N 40°29' E 017°13'0 0.0
2017-Nov-13 22:29N 40°29' E 017°13'0 0.0
2017-Nov-13 21:59N 40°29' E 017°13'0 0.0
2017-Nov-13 01:59N 40°29' E 017°13'0 0.0
2017-Nov-13 01:29N 40°29' E 017°13'0 0.0
2017-Nov-13 00:59N 40°29' E 017°13'0 0.0
2017-Nov-13 00:29N 40°29' E 017°13'0 0.0
2017-Nov-12 23:56N 40°29' E 017°13'0 0.0
2017-Nov-12 23:29N 40°29' E 017°13'0 0.0
2017-Nov-12 22:56N 40°29' E 017°13'0 0.0
2017-Nov-12 22:29N 40°29' E 017°13'0 0.0
2017-Nov-12 21:59N 40°29' E 017°13'0 0.0
2017-Nov-12 21:29N 40°29' E 017°13'0 0.0
2017-Nov-12 20:59N 40°29' E 017°13'0 0.0
2017-Nov-12 20:29N 40°29' E 017°13'0 0.0
2017-Nov-12 19:59N 40°29' E 017°13'0 0.0
2017-Nov-12 19:29N 40°29' E 017°13'0 0.0
2017-Nov-12 18:59N 40°29' E 017°13'0 0.0
2017-Nov-12 18:29N 40°29' E 017°13'0 0.0
2017-Nov-12 17:59N 40°29' E 017°13'0 0.0
2017-Nov-12 17:29N 40°29' E 017°13'0 0.0
2017-Nov-12 16:59N 40°29' E 017°13'0 0.0
2017-Nov-12 16:29N 40°29' E 017°13'0 0.0
2017-Nov-12 15:59N 40°29' E 017°13'0 0.0
2017-Nov-12 15:29N 40°29' E 017°13'0 0.0
2017-Nov-12 14:59N 40°29' E 017°13'0 0.0
2017-Nov-12 14:29N 40°29' E 017°13'0 0.0
2017-Nov-12 13:59N 40°29' E 017°13'0 0.0
2017-Nov-12 13:29N 40°29' E 017°13'1 1.2
2017-Nov-12 13:00N 40°29' E 017°13'1 1.1
2017-Nov-12 12:30N 40°29' E 017°13'0 0.0
2017-Nov-12 12:00N 40°29' E 017°13'0 0.0
2017-Nov-12 11:30N 40°29' E 017°13'0 0.0
2017-Nov-12 11:00N 40°29' E 017°13'0 0.0
2017-Nov-12 10:30N 40°29' E 017°13'0 0.0
2017-Nov-12 10:00N 40°29' E 017°13'0 0.0
2017-Nov-12 09:30N 40°29' E 017°13'0 0.0
2017-Nov-12 09:00N 40°29' E 017°13'0 0.0
2017-Nov-12 08:30N 40°29' E 017°13'0 0.0
2017-Nov-12 07:57N 40°29' E 017°13'2 4.0
2017-Nov-12 07:29N 40°27' E 017°14'1 1.7
2017-Nov-12 07:00N 40°27' E 017°15'1 2.8
2017-Nov-12 06:30N 40°27' E 017°14'2 3.2
2017-Nov-12 05:58N 40°29' E 017°13'0 0.0
2017-Nov-12 05:28N 40°29' E 017°13'0 0.0
2017-Nov-12 04:58N 40°29' E 017°13'0 0.0
2017-Nov-12 04:28N 40°29' E 017°13'0 0.0
2017-Nov-12 03:58N 40°29' E 017°13'0 0.0
2017-Nov-12 03:28N 40°29' E 017°13'0 0.0
2017-Nov-12 02:58N 40°29' E 017°13'0 0.0
2017-Nov-12 02:28N 40°29' E 017°13'0 0.0
2017-Nov-12 01:58N 40°29' E 017°13'0 0.0
2017-Nov-12 01:28N 40°29' E 017°13'0 0.0
2017-Nov-12 00:58N 40°29' E 017°13'0 0.0
2017-Nov-12 00:28N 40°29' E 017°13'1 2.7
2017-Nov-12 00:00N 40°28' E 017°12'0 0.0
2017-Nov-11 23:30N 40°28' E 017°12'0 0.3
2017-Nov-11 22:59N 40°28' E 017°12'1 2.8
2017-Nov-11 22:30N 40°29' E 017°13'0 0.0
2017-Nov-11 22:00N 40°29' E 017°13'0 0.0
2017-Nov-11 21:30N 40°29' E 017°13'0 0.0
2017-Nov-11 21:00N 40°29' E 017°13'0 0.0
2017-Nov-11 20:30N 40°29' E 017°13'0 0.0
2017-Nov-11 20:00N 40°29' E 017°13'0 0.0
2017-Nov-11 19:30N 40°29' E 017°13'0 0.0
2017-Nov-11 19:00N 40°29' E 017°13'0 0.0
2017-Nov-11 18:30N 40°29' E 017°13'0 0.0
2017-Nov-11 18:00N 40°29' E 017°13'0 0.0
2017-Nov-11 17:30N 40°29' E 017°13'0 0.0
2017-Nov-11 17:00N 40°29' E 017°13'0 0.0
2017-Nov-11 16:24N 40°29' E 017°13'0 0.0
2017-Nov-11 16:00N 40°29' E 017°13'0 0.0
2017-Nov-11 15:30N 40°29' E 017°13'0 0.0
2017-Nov-11 15:00N 40°29' E 017°13'0 0.0
2017-Nov-11 14:30N 40°29' E 017°13'0 0.0
2017-Nov-11 14:00N 40°29' E 017°13'1 2.3
2017-Nov-11 13:28N 40°28' E 017°12'1 1.0
2017-Nov-11 12:51N 40°28' E 017°12'1 1.4
2017-Nov-11 12:20N 40°28' E 017°12'0 0.1
2017-Nov-11 11:59N 40°28' E 017°12'1 2.7
2017-Nov-11 11:30N 40°27' E 017°12'2 3.7
2017-Nov-11 10:59N 40°29' E 017°13'0 0.0
2017-Nov-11 10:29N 40°29' E 017°13'0 0.0
2017-Nov-11 09:59N 40°29' E 017°13'2 4.3
2017-Nov-11 09:30N 40°27' E 017°13'1 1.0
2017-Nov-11 08:59N 40°27' E 017°12'1 1.2
2017-Nov-11 08:29N 40°27' E 017°13'1 1.6
2017-Nov-11 08:00N 40°28' E 017°13'1 1.4
2017-Nov-11 07:30N 40°28' E 017°13'0 0.5
2017-Nov-11 06:58N 40°28' E 017°13'0 0.9
2017-Nov-11 06:30N 40°28' E 017°13'1 1.1
2017-Nov-11 05:58N 40°29' E 017°13'0 0.0
2017-Nov-11 05:28N 40°29' E 017°13'0 0.0
2017-Nov-11 04:58N 40°29' E 017°13'0 0.0
2017-Nov-11 04:28N 40°29' E 017°13'0 0.0
2017-Nov-11 03:58N 40°29' E 017°13'0 0.0
2017-Nov-11 03:28N 40°29' E 017°13'0 0.0
2017-Nov-11 02:58N 40°29' E 017°13'0 0.0
2017-Nov-11 02:28N 40°29' E 017°13'0 0.0
2017-Nov-11 01:58N 40°29' E 017°13'0 0.0
2017-Nov-11 01:28N 40°29' E 017°13'0 0.0
2017-Nov-11 00:55N 40°29' E 017°13'0 0.0
2017-Nov-11 00:28N 40°29' E 017°13'0 0.0
2017-Nov-10 23:58N 40°29' E 017°13'0 0.0
2017-Nov-10 23:28N 40°29' E 017°13'0 0.0
2017-Nov-10 22:58N 40°29' E 017°13'0 0.0
2017-Nov-10 22:28N 40°29' E 017°13'0 0.0
2017-Nov-10 21:58N 40°29' E 017°13'0 0.0
2017-Nov-10 21:28N 40°29' E 017°13'0 0.0
2017-Nov-10 20:58N 40°29' E 017°13'0 0.0
2017-Nov-10 20:28N 40°29' E 017°13'0 0.0
2017-Nov-10 19:58N 40°29' E 017°13'0 0.0
2017-Nov-10 19:28N 40°29' E 017°13'0 0.0
2017-Nov-10 18:58N 40°29' E 017°13'0 0.0
2017-Nov-10 18:28N 40°29' E 017°13'0 0.0
2017-Nov-10 17:58N 40°29' E 017°13'0 0.9
2017-Nov-10 17:30N 40°28' E 017°13'1 2.6
2017-Nov-10 17:00N 40°28' E 017°12'1 2.3
2017-Nov-10 16:29N 40°29' E 017°13'0 0.0
2017-Nov-10 15:59N 40°29' E 017°13'0 0.0
2017-Nov-10 15:29N 40°29' E 017°13'0 0.0
2017-Nov-10 14:59N 40°29' E 017°13'0 0.0
2017-Nov-10 14:29N 40°29' E 017°13'0 0.0
2017-Nov-10 13:59N 40°29' E 017°13'0 0.0
2017-Nov-10 13:29N 40°29' E 017°13'0 0.0
2017-Nov-10 12:59N 40°29' E 017°13'0 0.1
2017-Nov-10 12:29N 40°29' E 017°13'0 0.0
2017-Nov-10 11:59N 40°29' E 017°13'0 0.0
2017-Nov-10 11:29N 40°29' E 017°13'0 0.0
2017-Nov-10 10:11N 40°29' E 017°13'0 0.0
2017-Nov-10 09:47N 40°29' E 017°13'0 0.0
2017-Nov-10 09:29N 40°29' E 017°13'0 0.0
2017-Nov-10 08:59N 40°29' E 017°13'0 0.1
2017-Nov-10 08:29N 40°29' E 017°13'0 0.0
2017-Nov-10 07:59N 40°29' E 017°13'0 0.0
2017-Nov-10 07:29N 40°29' E 017°13'0 0.0
2017-Nov-10 06:59N 40°29' E 017°13'0 0.0
2017-Nov-10 06:29N 40°29' E 017°13'0 0.0
2017-Nov-10 05:59N 40°29' E 017°13'0 0.0
2017-Nov-10 05:29N 40°29' E 017°13'0 0.0
2017-Nov-10 04:59N 40°29' E 017°13'0 0.0
2017-Nov-10 04:29N 40°29' E 017°13'0 0.0
2017-Nov-10 03:59N 40°29' E 017°13'0 0.0
2017-Nov-10 03:29N 40°29' E 017°13'0 0.0
2017-Nov-10 02:59N 40°29' E 017°13'0 0.0
2017-Nov-10 02:29N 40°29' E 017°13'0 0.0
2017-Nov-10 01:59N 40°29' E 017°13'0 0.0
2017-Nov-10 01:29N 40°29' E 017°13'0 0.0
2017-Nov-10 00:59N 40°29' E 017°13'0 0.0
2017-Nov-10 00:29N 40°29' E 017°13'0 0.0
2017-Nov-09 23:59N 40°29' E 017°13'0 0.0
2017-Nov-09 23:29N 40°29' E 017°13'0 0.0
2017-Nov-09 22:59N 40°29' E 017°13'0 0.0
2017-Nov-09 22:29N 40°29' E 017°13'0 0.0
2017-Nov-09 21:59N 40°29' E 017°13'1 2.1
2017-Nov-09 21:30N 40°28' E 017°13'1 1.5
2017-Nov-09 20:58N 40°28' E 017°12'1 2.2
2017-Nov-09 20:30N 40°27' E 017°12'1 1.5
2017-Nov-09 20:00N 40°28' E 017°13'1 2.0
2017-Nov-09 19:30N 40°29' E 017°13'0 0.0
2017-Nov-09 19:00N 40°29' E 017°13'0 0.0
2017-Nov-09 18:30N 40°29' E 017°13'0 0.0
2017-Nov-09 18:00N 40°29' E 017°13'0 0.0
2017-Nov-09 17:30N 40°29' E 017°13'0 0.0
2017-Nov-09 17:00N 40°29' E 017°13'0 0.0
2017-Nov-09 16:30N 40°29' E 017°13'0 0.0
2017-Nov-09 16:00N 40°29' E 017°13'0 0.0
2017-Nov-09 15:30N 40°29' E 017°13'0 0.0
2017-Nov-09 15:00N 40°29' E 017°13'0 0.0
2017-Nov-09 14:30N 40°29' E 017°13'0 0.0
2017-Nov-09 13:57N 40°29' E 017°13'0 0.0
2017-Nov-09 13:30N 40°29' E 017°13'0 0.0
2017-Nov-09 13:00N 40°29' E 017°13'0 0.0
2017-Nov-09 12:30N 40°29' E 017°13'1 2.2
2017-Nov-09 12:00N 40°28' E 017°12'1 1.4
2017-Nov-09 11:29N 40°28' E 017°12'1 2.8
2017-Nov-09 11:01N 40°27' E 017°11'0 0.3
2017-Nov-09 10:29N 40°27' E 017°11'2 3.5
2017-Nov-09 10:00N 40°28' E 017°13'1 1.6
2017-Nov-09 09:29N 40°28' E 017°13'1 1.9
2017-Nov-09 09:01N 40°28' E 017°13'1 2.7
2017-Nov-09 08:29N 40°26' E 017°12'0 0.1
2017-Nov-09 07:59N 40°26' E 017°12'2 4.2
2017-Nov-09 07:31N 40°28' E 017°13'0 0.6
2017-Nov-09 07:00N 40°28' E 017°13'0 0.6
2017-Nov-09 06:29N 40°29' E 017°13'0 0.0
2017-Nov-09 05:59N 40°29' E 017°13'0 0.0
2017-Nov-09 05:29N 40°29' E 017°13'0 0.0
2017-Nov-09 04:59N 40°29' E 017°13'0 0.0
2017-Nov-09 04:29N 40°29' E 017°13'0 0.0
2017-Nov-09 03:59N 40°29' E 017°13'0 0.0
2017-Nov-09 03:29N 40°29' E 017°13'0 0.0
2017-Nov-09 02:59N 40°29' E 017°13'0 0.0
2017-Nov-09 02:29N 40°29' E 017°13'0 0.0
2017-Nov-09 01:59N 40°29' E 017°13'0 0.0
2017-Nov-09 01:29N 40°29' E 017°13'0 0.0
2017-Nov-09 00:59N 40°29' E 017°13'0 0.0
2017-Nov-09 00:29N 40°29' E 017°13'0 0.0
2017-Nov-08 23:59N 40°29' E 017°13'0 0.0
2017-Nov-08 23:29N 40°29' E 017°13'0 0.0
2017-Nov-08 22:59N 40°29' E 017°13'0 0.0
2017-Nov-08 22:29N 40°29' E 017°13'0 0.0
2017-Nov-08 21:59N 40°29' E 017°13'0 0.0
2017-Nov-08 21:29N 40°29' E 017°13'0 0.0
2017-Nov-08 20:59N 40°29' E 017°13'2 3.4
2017-Nov-08 20:30N 40°27' E 017°14'0 0.9
2017-Nov-08 20:00N 40°27' E 017°14'0 0.7
2017-Nov-08 19:30N 40°27' E 017°14'1 1.5
2017-Nov-08 19:00N 40°27' E 017°15'2 4.8
2017-Nov-08 18:29N 40°29' E 017°13'2 4.8
2017-Nov-08 18:00N 40°27' E 017°15'0 0.6
2017-Nov-08 17:28N 40°27' E 017°14'1 2.4
2017-Nov-08 16:59N 40°27' E 017°13'2 3.5
2017-Nov-08 16:30N 40°27' E 017°15'1 2.0
2017-Nov-08 16:00N 40°27' E 017°14'1 1.4
2017-Nov-08 15:30N 40°28' E 017°13'1 1.1
2017-Nov-08 15:01N 40°28' E 017°13'1 1.2
2017-Nov-08 14:30N 40°29' E 017°13'0 0.3
2017-Nov-08 14:00N 40°29' E 017°13'0 0.5
2017-Nov-08 13:28N 40°29' E 017°13'0 0.0
2017-Nov-08 12:58N 40°29' E 017°13'0 0.0
2017-Nov-08 12:28N 40°29' E 017°13'0 0.0
2017-Nov-08 11:58N 40°29' E 017°13'0 0.0
2017-Nov-08 11:28N 40°29' E 017°13'0 0.0
2017-Nov-08 10:58N 40°29' E 017°13'0 0.0
2017-Nov-08 10:28N 40°29' E 017°13'1 1.2
2017-Nov-08 09:59N 40°28' E 017°12'1 2.3
2017-Nov-08 09:29N 40°27' E 017°13'0 0.2
2017-Nov-08 08:58N 40°27' E 017°13'0 0.1
2017-Nov-08 08:28N 40°27' E 017°13'0 0.1
2017-Nov-08 07:58N 40°27' E 017°13'0 0.1
2017-Nov-08 07:28N 40°27' E 017°13'1 2.9
2017-Nov-08 07:00N 40°28' E 017°12'0 0.1
2017-Nov-08 06:30N 40°28' E 017°13'1 1.1
2017-Nov-08 05:59N 40°29' E 017°13'0 0.0
2017-Nov-08 05:29N 40°29' E 017°13'0 0.0
2017-Nov-08 04:59N 40°29' E 017°13'0 0.0
2017-Nov-08 04:29N 40°29' E 017°13'0 0.0
2017-Nov-08 03:59N 40°29' E 017°13'0 0.0
2017-Nov-08 03:29N 40°29' E 017°13'0 0.0
2017-Nov-08 02:59N 40°29' E 017°13'0 0.0
2017-Nov-08 02:29N 40°29' E 017°13'0 0.0
2017-Nov-08 01:59N 40°29' E 017°13'0 0.0
2017-Nov-08 01:29N 40°29' E 017°13'0 0.0
2017-Nov-08 00:59N 40°29' E 017°13'0 0.0
2017-Nov-08 00:29N 40°29' E 017°13'0 0.0
2017-Nov-07 23:59N 40°29' E 017°13'0 0.0
2017-Nov-07 23:29N 40°29' E 017°13'  
Track history (hours):
 
Tides and Currents Weather Stations Pressure Air Temp Water Temp Dewpoint Dewpoint Depression Visibility Wind Speed Wind Dir Waves Ship Positions

Dritto

Last reported at 2017-Nov-17 23:00 UTC. Time now 2017-Nov-17 23:22 UTC.
Position N 40°29' E 017°13'.

Length 27 m; draft 5.5 m.

Type: Tug. MMSI: 247269900.

Date/timePositionNaut miles runAvg speedWind from/ knotsBaromVisibWave heightAir tempDewpointWater temp
2017-Nov-17 23:00N 40°29' E 017°13'0 0.0
2017-Nov-17 22:30N 40°29' E 017°13'0 0.0
2017-Nov-17 22:00N 40°29' E 017°13'0 0.0
2017-Nov-17 21:30N 40°29' E 017°13'0 0.0
2017-Nov-17 21:00N 40°29' E 017°13'0 0.0
2017-Nov-17 20:30N 40°29' E 017°13'0 0.0
2017-Nov-17 19:57N 40°29' E 017°13'0 0.0
2017-Nov-17 19:27N 40°29' E 017°13'0 0.0
2017-Nov-17 19:00N 40°29' E 017°13'0 0.0
2017-Nov-17 18:30N 40°29' E 017°13'0 0.0
2017-Nov-17 18:00N 40°29' E 017°13'0 0.0
2017-Nov-17 17:30N 40°29' E 017°13'0 0.0
2017-Nov-17 17:00N 40°29' E 017°13'0 0.0
2017-Nov-17 16:30N 40°29' E 017°13'0 0.0
2017-Nov-17 16:00N 40°29' E 017°13'0 0.0
2017-Nov-17 15:30N 40°29' E 017°13'0 0.0
2017-Nov-17 15:00N 40°29' E 017°13'0 0.0
2017-Nov-17 14:30N 40°29' E 017°13'0 0.0
2017-Nov-17 13:57N 40°29' E 017°13'0 0.0
2017-Nov-17 13:30N 40°29' E 017°13'0 0.0
2017-Nov-17 13:00N 40°29' E 017°13'0 0.0
2017-Nov-17 12:30N 40°29' E 017°13'0 0.0
2017-Nov-17 11:57N 40°29' E 017°13'0 0.0
2017-Nov-17 11:30N 40°29' E 017°13'0 0.0
2017-Nov-17 11:00N 40°29' E 017°13'0 0.0
2017-Nov-17 10:30N 40°29' E 017°13'1 3.0
2017-Nov-17 10:00N 40°28' E 017°12'0 1.0
2017-Nov-17 09:30N 40°28' E 017°12'1 1.5
2017-Nov-17 09:00N 40°28' E 017°12'1 2.8
2017-Nov-17 08:30N 40°29' E 017°13'0 0.0
2017-Nov-17 08:00N 40°29' E 017°13'0 0.0
2017-Nov-17 07:30N 40°29' E 017°13'0 0.0
2017-Nov-17 07:00N 40°29' E 017°13'0 0.0
2017-Nov-17 06:30N 40°29' E 017°13'0 0.0
2017-Nov-17 06:00N 40°29' E 017°13'0 0.0
2017-Nov-17 05:30N 40°29' E 017°13'0 0.0
2017-Nov-17 05:00N 40°29' E 017°13'0 0.0
2017-Nov-17 04:30N 40°29' E 017°13'0 0.0
2017-Nov-17 04:00N 40°29' E 017°13'0 0.0
2017-Nov-17 03:30N 40°29' E 017°13'0 0.0
2017-Nov-17 03:00N 40°29' E 017°13'0 0.0
2017-Nov-17 02:30N 40°29' E 017°13'0 0.0
2017-Nov-17 02:00N 40°29' E 017°13'0 0.0
2017-Nov-17 01:30N 40°29' E 017°13'2 4.8
2017-Nov-17 01:00N 40°29' E 017°10'1 2.7
2017-Nov-17 00:28N 40°30' E 017°10'0 0.1
2017-Nov-16 23:59N 40°30' E 017°09'0 0.1
2017-Nov-16 23:29N 40°30' E 017°09'2 3.7
2017-Nov-16 23:01N 40°29' E 017°11'2 3.7
2017-Nov-16 22:29N 40°29' E 017°13'0 0.0
2017-Nov-16 21:59N 40°29' E 017°13'0 0.0
2017-Nov-16 21:29N 40°29' E 017°13'1 2.8
2017-Nov-16 21:00N 40°28' E 017°14'1 2.2
2017-Nov-16 20:30N 40°27' E 017°15'0 0.5
2017-Nov-16 20:01N 40°27' E 017°14'0 0.2
2017-Nov-16 19:30N 40°27' E 017°15'1 2.1
2017-Nov-16 19:00N 40°27' E 017°13'2 3.1
2017-Nov-16 18:30N 40°29' E 017°13'3 6.4
2017-Nov-16 18:00N 40°29' E 017°09'1 1.4
2017-Nov-16 17:29N 40°30' E 017°10'1 2.5
2017-Nov-16 16:58N 40°30' E 017°08'1 2.7
2017-Nov-16 16:30N 40°29' E 017°09'3 6.0
2017-Nov-16 16:00N 40°29' E 017°13'0 0.5
2017-Nov-16 15:29N 40°29' E 017°13'0 0.0
2017-Nov-16 14:58N 40°29' E 017°13'0 0.0
2017-Nov-16 14:29N 40°29' E 017°13'0 0.0
2017-Nov-16 13:58N 40°29' E 017°13'0 0.0
2017-Nov-16 13:28N 40°29' E 017°13'0 0.0
2017-Nov-16 12:58N 40°29' E 017°13'0 0.0
2017-Nov-16 12:28N 40°29' E 017°13'0 0.0
2017-Nov-16 11:59N 40°29' E 017°13'0 0.0
2017-Nov-16 11:29N 40°29' E 017°13'0 0.0
2017-Nov-16 10:59N 40°29' E 017°13'0 0.0
2017-Nov-16 10:28N 40°29' E 017°13'0 0.0
2017-Nov-16 09:59N 40°29' E 017°13'0 0.0
2017-Nov-16 09:29N 40°29' E 017°13'0 0.0
2017-Nov-16 08:58N 40°29' E 017°13'0 0.0
2017-Nov-16 08:28N 40°29' E 017°13'0 0.0
2017-Nov-16 07:58N 40°29' E 017°13'0 0.0
2017-Nov-16 07:28N 40°29' E 017°13'0 0.0
2017-Nov-16 06:58N 40°29' E 017°13'0 0.0
2017-Nov-16 06:28N 40°29' E 017°13'0 0.0
2017-Nov-16 05:58N 40°29' E 017°13'0 0.0
2017-Nov-16 05:29N 40°29' E 017°13'0 0.0
2017-Nov-16 04:59N 40°29' E 017°13'0 0.0
2017-Nov-16 04:29N 40°29' E 017°13'0 0.0
2017-Nov-16 03:59N 40°29' E 017°13'0 0.0
2017-Nov-16 03:29N 40°29' E 017°13'0 0.0
2017-Nov-16 02:59N 40°29' E 017°13'0 0.0
2017-Nov-16 02:29N 40°29' E 017°13'0 0.0
2017-Nov-16 01:58N 40°29' E 017°13'0 0.0
2017-Nov-16 01:29N 40°29' E 017°13'0 0.0
2017-Nov-16 00:59N 40°29' E 017°13'0 0.0
2017-Nov-16 00:29N 40°29' E 017°13'0 0.0
2017-Nov-15 23:58N 40°29' E 017°13'0 0.0
2017-Nov-15 23:29N 40°29' E 017°13'0 0.0
2017-Nov-15 22:59N 40°29' E 017°13'0 0.0
2017-Nov-15 22:29N 40°29' E 017°13'0 0.0
2017-Nov-15 21:58N 40°29' E 017°13'0 0.0
2017-Nov-15 21:28N 40°29' E 017°13'0 0.0
2017-Nov-15 20:59N 40°29' E 017°13'0 0.0
2017-Nov-15 20:28N 40°29' E 017°13'0 0.0
2017-Nov-15 19:55N 40°29' E 017°13'0 0.0
2017-Nov-15 19:28N 40°29' E 017°13'0 0.0
2017-Nov-15 18:59N 40°29' E 017°13'0 0.0
2017-Nov-15 18:29N 40°29' E 017°13'0 0.0
2017-Nov-15 17:58N 40°29' E 017°13'0 0.0
2017-Nov-15 17:29N 40°29' E 017°13'0 0.0
2017-Nov-15 16:59N 40°29' E 017°13'0 0.0
2017-Nov-15 16:29N 40°29' E 017°13'0 0.0
2017-Nov-15 15:58N 40°29' E 017°13'0 0.0
2017-Nov-15 15:29N 40°29' E 017°13'0 0.0
2017-Nov-15 14:59N 40°29' E 017°13'0 0.0
2017-Nov-15 14:29N 40°29' E 017°13'0 0.0
2017-Nov-15 13:59N 40°29' E 017°13'0 0.0
2017-Nov-15 13:28N 40°29' E 017°13'0 0.0
2017-Nov-15 12:59N 40°29' E 017°13'0 0.0
2017-Nov-15 12:29N 40°29' E 017°13'0 0.0
2017-Nov-15 11:59N 40°29' E 017°13'0 0.0
2017-Nov-15 11:28N 40°29' E 017°13'0 0.0
2017-Nov-15 10:58N 40°29' E 017°13'0 0.0
2017-Nov-15 10:28N 40°29' E 017°13'0 0.0
2017-Nov-15 09:58N 40°29' E 017°13'0 0.0
2017-Nov-15 09:29N 40°29' E 017°13'0 0.0
2017-Nov-15 08:59N 40°29' E 017°13'0 0.0
2017-Nov-15 08:29N 40°29' E 017°13'0 0.2
2017-Nov-15 08:00N 40°29' E 017°13'1 2.2
2017-Nov-15 07:30N 40°28' E 017°13'2 3.1
2017-Nov-15 07:00N 40°27' E 017°14'0 0.1
2017-Nov-15 06:30N 40°27' E 017°14'2 4.1
2017-Nov-15 05:59N 40°29' E 017°13'0 0.0
2017-Nov-15 05:29N 40°29' E 017°13'0 0.0
2017-Nov-15 04:59N 40°29' E 017°13'0 0.0
2017-Nov-15 04:29N 40°29' E 017°13'0 0.0
2017-Nov-15 03:59N 40°29' E 017°13'0 0.0
2017-Nov-15 03:29N 40°29' E 017°13'0 0.0
2017-Nov-15 02:59N 40°29' E 017°13'0 0.0
2017-Nov-15 02:29N 40°29' E 017°13'0 0.0
2017-Nov-15 01:59N 40°29' E 017°13'0 0.0
2017-Nov-15 01:29N 40°29' E 017°13'0 0.0
2017-Nov-15 00:59N 40°29' E 017°13'0 0.0
2017-Nov-15 00:29N 40°29' E 017°13'0 0.0
2017-Nov-14 23:59N 40°29' E 017°13'0 0.0
2017-Nov-14 23:29N 40°29' E 017°13'0 0.0
2017-Nov-14 22:59N 40°29' E 017°13'0 0.0
2017-Nov-14 22:29N 40°29' E 017°13'0 0.0
2017-Nov-14 21:59N 40°29' E 017°13'0 0.0
2017-Nov-14 21:29N 40°29' E 017°13'0 0.0
2017-Nov-14 20:59N 40°29' E 017°13'0 0.0
2017-Nov-14 20:29N 40°29' E 017°13'0 0.0
2017-Nov-14 19:59N 40°29' E 017°13'0 0.0
2017-Nov-14 19:29N 40°29' E 017°13'0 0.0
2017-Nov-14 18:59N 40°29' E 017°13'0 0.0
2017-Nov-14 18:29N 40°29' E 017°13'0 0.0
2017-Nov-14 17:59N 40°29' E 017°13'0 0.0
2017-Nov-14 17:29N 40°29' E 017°13'0 0.0
2017-Nov-14 16:59N 40°29' E 017°13'0 0.0
2017-Nov-14 16:29N 40°29' E 017°13'0 0.0
2017-Nov-14 15:59N 40°29' E 017°13'0 0.0
2017-Nov-14 15:29N 40°29' E 017°13'0 0.0
2017-Nov-14 14:59N 40°29' E 017°13'0 0.0
2017-Nov-14 14:29N 40°29' E 017°13'0 0.0
2017-Nov-14 13:59N 40°29' E 017°13'0 0.0
2017-Nov-14 13:29N 40°29' E 017°13'0 0.0
2017-Nov-14 12:59N 40°29' E 017°13'0 0.0
2017-Nov-14 12:29N 40°29' E 017°13'0 0.0
2017-Nov-14 11:59N 40°29' E 017°13'0 0.0
2017-Nov-14 11:29N 40°29' E 017°13'0 0.0
2017-Nov-14 10:59N 40°29' E 017°13'0 0.0
2017-Nov-14 10:29N 40°29' E 017°13'0 0.0
2017-Nov-14 09:59N 40°29' E 017°13'0 0.0
2017-Nov-14 09:29N 40°29' E 017°13'0 0.0
2017-Nov-14 08:59N 40°29' E 017°13'0 0.0
2017-Nov-14 08:29N 40°29' E 017°13'0 0.0
2017-Nov-14 07:59N 40°29' E 017°13'0 0.0
2017-Nov-14 07:29N 40°29' E 017°13'0 0.0
2017-Nov-14 06:59N 40°29' E 017°13'0 0.0
2017-Nov-14 06:29N 40°29' E 017°13'0 0.0
2017-Nov-14 05:59N 40°29' E 017°13'0 0.0
2017-Nov-14 05:29N 40°29' E 017°13'0 0.0
2017-Nov-14 04:59N 40°29' E 017°13'0 0.0
2017-Nov-14 04:29N 40°29' E 017°13'0 0.0
2017-Nov-14 03:59N 40°29' E 017°13'0 0.0
2017-Nov-14 03:29N 40°29' E 017°13'0 0.0
2017-Nov-14 02:59N 40°29' E 017°13'0 0.0
2017-Nov-14 02:29N 40°29' E 017°13'0 0.0
2017-Nov-14 01:59N 40°29' E 017°13'0 0.0
2017-Nov-14 01:29N 40°29' E 017°13'0 0.0
2017-Nov-14 00:59N 40°29' E 017°13'0 0.0
2017-Nov-14 00:29N 40°29' E 017°13'0 0.0
2017-Nov-13 23:59N 40°29' E 017°13'0 0.0
2017-Nov-13 23:29N 40°29' E 017°13'0 0.0
2017-Nov-13 22:59N 40°29' E 017°13'0 0.0
2017-Nov-13 22:29N 40°29' E 017°13'0 0.0
2017-Nov-13 21:59N 40°29' E 017°13'0 0.0
2017-Nov-13 01:59N 40°29' E 017°13'0 0.0
2017-Nov-13 01:29N 40°29' E 017°13'0 0.0
2017-Nov-13 00:59N 40°29' E 017°13'0 0.0
2017-Nov-13 00:29N 40°29' E 017°13'0 0.0
2017-Nov-12 23:56N 40°29' E 017°13'0 0.0
2017-Nov-12 23:29N 40°29' E 017°13'0 0.0
2017-Nov-12 22:56N 40°29' E 017°13'0 0.0
2017-Nov-12 22:29N 40°29' E 017°13'0 0.0
2017-Nov-12 21:59N 40°29' E 017°13'0 0.0
2017-Nov-12 21:29N 40°29' E 017°13'0 0.0
2017-Nov-12 20:59N 40°29' E 017°13'0 0.0
2017-Nov-12 20:29N 40°29' E 017°13'0 0.0
2017-Nov-12 19:59N 40°29' E 017°13'0 0.0
2017-Nov-12 19:29N 40°29' E 017°13'0 0.0
2017-Nov-12 18:59N 40°29' E 017°13'0 0.0
2017-Nov-12 18:29N 40°29' E 017°13'0 0.0
2017-Nov-12 17:59N 40°29' E 017°13'0 0.0
2017-Nov-12 17:29N 40°29' E 017°13'0 0.0
2017-Nov-12 16:59N 40°29' E 017°13'0 0.0
2017-Nov-12 16:29N 40°29' E 017°13'0 0.0
2017-Nov-12 15:59N 40°29' E 017°13'0 0.0
2017-Nov-12 15:29N 40°29' E 017°13'0 0.0
2017-Nov-12 14:59N 40°29' E 017°13'0 0.0
2017-Nov-12 14:29N 40°29' E 017°13'0 0.0
2017-Nov-12 13:59N 40°29' E 017°13'0 0.0
2017-Nov-12 13:29N 40°29' E 017°13'1 1.2
2017-Nov-12 13:00N 40°29' E 017°13'1 1.1
2017-Nov-12 12:30N 40°29' E 017°13'0 0.0
2017-Nov-12 12:00N 40°29' E 017°13'0 0.0
2017-Nov-12 11:30N 40°29' E 017°13'0 0.0
2017-Nov-12 11:00N 40°29' E 017°13'0 0.0
2017-Nov-12 10:30N 40°29' E 017°13'0 0.0
2017-Nov-12 10:00N 40°29' E 017°13'0 0.0
2017-Nov-12 09:30N 40°29' E 017°13'0 0.0
2017-Nov-12 09:00N 40°29' E 017°13'0 0.0
2017-Nov-12 08:30N 40°29' E 017°13'0 0.0
2017-Nov-12 07:57N 40°29' E 017°13'2 4.0
2017-Nov-12 07:29N 40°27' E 017°14'1 1.7
2017-Nov-12 07:00N 40°27' E 017°15'1 2.8
2017-Nov-12 06:30N 40°27' E 017°14'2 3.2
2017-Nov-12 05:58N 40°29' E 017°13'0 0.0
2017-Nov-12 05:28N 40°29' E 017°13'0 0.0
2017-Nov-12 04:58N 40°29' E 017°13'0 0.0
2017-Nov-12 04:28N 40°29' E 017°13'0 0.0
2017-Nov-12 03:58N 40°29' E 017°13'0 0.0
2017-Nov-12 03:28N 40°29' E 017°13'0 0.0
2017-Nov-12 02:58N 40°29' E 017°13'0 0.0
2017-Nov-12 02:28N 40°29' E 017°13'0 0.0
2017-Nov-12 01:58N 40°29' E 017°13'0 0.0
2017-Nov-12 01:28N 40°29' E 017°13'0 0.0
2017-Nov-12 00:58N 40°29' E 017°13'0 0.0
2017-Nov-12 00:28N 40°29' E 017°13'1 2.7
2017-Nov-12 00:00N 40°28' E 017°12'0 0.0
2017-Nov-11 23:30N 40°28' E 017°12'0 0.3
2017-Nov-11 22:59N 40°28' E 017°12'1 2.8
2017-Nov-11 22:30N 40°29' E 017°13'0 0.0
2017-Nov-11 22:00N 40°29' E 017°13'0 0.0
2017-Nov-11 21:30N 40°29' E 017°13'0 0.0
2017-Nov-11 21:00N 40°29' E 017°13'0 0.0
2017-Nov-11 20:30N 40°29' E 017°13'0 0.0
2017-Nov-11 20:00N 40°29' E 017°13'0 0.0
2017-Nov-11 19:30N 40°29' E 017°13'0 0.0
2017-Nov-11 19:00N 40°29' E 017°13'0 0.0
2017-Nov-11 18:30N 40°29' E 017°13'0 0.0
2017-Nov-11 18:00N 40°29' E 017°13'0 0.0
2017-Nov-11 17:30N 40°29' E 017°13'0 0.0
2017-Nov-11 17:00N 40°29' E 017°13'0 0.0
2017-Nov-11 16:24N 40°29' E 017°13'0 0.0
2017-Nov-11 16:00N 40°29' E 017°13'0 0.0
2017-Nov-11 15:30N 40°29' E 017°13'0 0.0
2017-Nov-11 15:00N 40°29' E 017°13'0 0.0
2017-Nov-11 14:30N 40°29' E 017°13'0 0.0
2017-Nov-11 14:00N 40°29' E 017°13'1 2.3
2017-Nov-11 13:28N 40°28' E 017°12'1 1.0
2017-Nov-11 12:51N 40°28' E 017°12'1 1.4
2017-Nov-11 12:20N 40°28' E 017°12'0 0.1
2017-Nov-11 11:59N 40°28' E 017°12'1 2.7
2017-Nov-11 11:30N 40°27' E 017°12'2 3.7
2017-Nov-11 10:59N 40°29' E 017°13'0 0.0
2017-Nov-11 10:29N 40°29' E 017°13'0 0.0
2017-Nov-11 09:59N 40°29' E 017°13'2 4.3
2017-Nov-11 09:30N 40°27' E 017°13'1 1.0
2017-Nov-11 08:59N 40°27' E 017°12'1 1.2
2017-Nov-11 08:29N 40°27' E 017°13'1 1.6
2017-Nov-11 08:00N 40°28' E 017°13'1 1.4
2017-Nov-11 07:30N 40°28' E 017°13'0 0.5
2017-Nov-11 06:58N 40°28' E 017°13'0 0.9
2017-Nov-11 06:30N 40°28' E 017°13'1 1.1
2017-Nov-11 05:58N 40°29' E 017°13'0 0.0
2017-Nov-11 05:28N 40°29' E 017°13'0 0.0
2017-Nov-11 04:58N 40°29' E 017°13'0 0.0
2017-Nov-11 04:28N 40°29' E 017°13'0 0.0
2017-Nov-11 03:58N 40°29' E 017°13'0 0.0
2017-Nov-11 03:28N 40°29' E 017°13'0 0.0
2017-Nov-11 02:58N 40°29' E 017°13'0 0.0
2017-Nov-11 02:28N 40°29' E 017°13'0 0.0
2017-Nov-11 01:58N 40°29' E 017°13'0 0.0
2017-Nov-11 01:28N 40°29' E 017°13'0 0.0
2017-Nov-11 00:55N 40°29' E 017°13'0 0.0
2017-Nov-11 00:28N 40°29' E 017°13'0 0.0
2017-Nov-10 23:58N 40°29' E 017°13'0 0.0
2017-Nov-10 23:28N 40°29' E 017°13'0 0.0
2017-Nov-10 22:58N 40°29' E 017°13'0 0.0
2017-Nov-10 22:28N 40°29' E 017°13'0 0.0
2017-Nov-10 21:58N 40°29' E 017°13'0 0.0
2017-Nov-10 21:28N 40°29' E 017°13'0 0.0
2017-Nov-10 20:58N 40°29' E 017°13'0 0.0
2017-Nov-10 20:28N 40°29' E 017°13'0 0.0
2017-Nov-10 19:58N 40°29' E 017°13'0 0.0
2017-Nov-10 19:28N 40°29' E 017°13'0 0.0
2017-Nov-10 18:58N 40°29' E 017°13'0 0.0
2017-Nov-10 18:28N 40°29' E 017°13'0 0.0
2017-Nov-10 17:58N 40°29' E 017°13'0 0.9
2017-Nov-10 17:30N 40°28' E 017°13'1 2.6
2017-Nov-10 17:00N 40°28' E 017°12'1 2.3
2017-Nov-10 16:29N 40°29' E 017°13'0 0.0
2017-Nov-10 15:59N 40°29' E 017°13'0 0.0
2017-Nov-10 15:29N 40°29' E 017°13'0 0.0
2017-Nov-10 14:59N 40°29' E 017°13'0 0.0
2017-Nov-10 14:29N 40°29' E 017°13'0 0.0
2017-Nov-10 13:59N 40°29' E 017°13'0 0.0
2017-Nov-10 13:29N 40°29' E 017°13'0 0.0
2017-Nov-10 12:59N 40°29' E 017°13'0 0.1
2017-Nov-10 12:29N 40°29' E 017°13'0 0.0
2017-Nov-10 11:59N 40°29' E 017°13'0 0.0
2017-Nov-10 11:29N 40°29' E 017°13'0 0.0
2017-Nov-10 10:11N 40°29' E 017°13'0 0.0
2017-Nov-10 09:47N 40°29' E 017°13'0 0.0
2017-Nov-10 09:29N 40°29' E 017°13'0 0.0
2017-Nov-10 08:59N 40°29' E 017°13'0 0.1
2017-Nov-10 08:29N 40°29' E 017°13'0 0.0
2017-Nov-10 07:59N 40°29' E 017°13'0 0.0
2017-Nov-10 07:29N 40°29' E 017°13'0 0.0
2017-Nov-10 06:59N 40°29' E 017°13'0 0.0
2017-Nov-10 06:29N 40°29' E 017°13'0 0.0
2017-Nov-10 05:59N 40°29' E 017°13'0 0.0
2017-Nov-10 05:29N 40°29' E 017°13'0 0.0
2017-Nov-10 04:59N 40°29' E 017°13'0 0.0
2017-Nov-10 04:29N 40°29' E 017°13'0 0.0
2017-Nov-10 03:59N 40°29' E 017°13'0 0.0
2017-Nov-10 03:29N 40°29' E 017°13'0 0.0
2017-Nov-10 02:59N 40°29' E 017°13'0 0.0
2017-Nov-10 02:29N 40°29' E 017°13'0 0.0
2017-Nov-10 01:59N 40°29' E 017°13'0 0.0
2017-Nov-10 01:29N 40°29' E 017°13'0 0.0
2017-Nov-10 00:59N 40°29' E 017°13'0 0.0
2017-Nov-10 00:29N 40°29' E 017°13'0 0.0
2017-Nov-09 23:59N 40°29' E 017°13'0 0.0
2017-Nov-09 23:29N 40°29' E 017°13'0 0.0
2017-Nov-09 22:59N 40°29' E 017°13'0 0.0
2017-Nov-09 22:29N 40°29' E 017°13'0 0.0
2017-Nov-09 21:59N 40°29' E 017°13'1 2.1
2017-Nov-09 21:30N 40°28' E 017°13'1 1.5
2017-Nov-09 20:58N 40°28' E 017°12'1 2.2
2017-Nov-09 20:30N 40°27' E 017°12'1 1.5
2017-Nov-09 20:00N 40°28' E 017°13'1 2.0
2017-Nov-09 19:30N 40°29' E 017°13'0 0.0
2017-Nov-09 19:00N 40°29' E 017°13'0 0.0
2017-Nov-09 18:30N 40°29' E 017°13'0 0.0
2017-Nov-09 18:00N 40°29' E 017°13'0 0.0
2017-Nov-09 17:30N 40°29' E 017°13'0 0.0
2017-Nov-09 17:00N 40°29' E 017°13'0 0.0
2017-Nov-09 16:30N 40°29' E 017°13'0 0.0
2017-Nov-09 16:00N 40°29' E 017°13'0 0.0
2017-Nov-09 15:30N 40°29' E 017°13'0 0.0
2017-Nov-09 15:00N 40°29' E 017°13'0 0.0
2017-Nov-09 14:30N 40°29' E 017°13'0 0.0
2017-Nov-09 13:57N 40°29' E 017°13'0 0.0
2017-Nov-09 13:30N 40°29' E 017°13'0 0.0
2017-Nov-09 13:00N 40°29' E 017°13'0 0.0
2017-Nov-09 12:30N 40°29' E 017°13'1 2.2
2017-Nov-09 12:00N 40°28' E 017°12'1 1.4
2017-Nov-09 11:29N 40°28' E 017°12'1 2.8
2017-Nov-09 11:01N 40°27' E 017°11'0 0.3
2017-Nov-09 10:29N 40°27' E 017°11'2 3.5
2017-Nov-09 10:00N 40°28' E 017°13'1 1.6
2017-Nov-09 09:29N 40°28' E 017°13'1 1.9
2017-Nov-09 09:01N 40°28' E 017°13'1 2.7
2017-Nov-09 08:29N 40°26' E 017°12'0 0.1
2017-Nov-09 07:59N 40°26' E 017°12'2 4.2
2017-Nov-09 07:31N 40°28' E 017°13'0 0.6
2017-Nov-09 07:00N 40°28' E 017°13'0 0.6
2017-Nov-09 06:29N 40°29' E 017°13'0 0.0
2017-Nov-09 05:59N 40°29' E 017°13'0 0.0
2017-Nov-09 05:29N 40°29' E 017°13'0 0.0
2017-Nov-09 04:59N 40°29' E 017°13'0 0.0
2017-Nov-09 04:29N 40°29' E 017°13'0 0.0
2017-Nov-09 03:59N 40°29' E 017°13'0 0.0
2017-Nov-09 03:29N 40°29' E 017°13'0 0.0
2017-Nov-09 02:59N 40°29' E 017°13'0 0.0
2017-Nov-09 02:29N 40°29' E 017°13'0 0.0
2017-Nov-09 01:59N 40°29' E 017°13'0 0.0
2017-Nov-09 01:29N 40°29' E 017°13'0 0.0
2017-Nov-09 00:59N 40°29' E 017°13'0 0.0
2017-Nov-09 00:29N 40°29' E 017°13'0 0.0
2017-Nov-08 23:59N 40°29' E 017°13'0 0.0
2017-Nov-08 23:29N 40°29' E 017°13'0 0.0
2017-Nov-08 22:59N 40°29' E 017°13'0 0.0
2017-Nov-08 22:29N 40°29' E 017°13'0 0.0
2017-Nov-08 21:59N 40°29' E 017°13'0 0.0
2017-Nov-08 21:29N 40°29' E 017°13'0 0.0
2017-Nov-08 20:59N 40°29' E 017°13'2 3.4
2017-Nov-08 20:30N 40°27' E 017°14'0 0.9
2017-Nov-08 20:00N 40°27' E 017°14'0 0.7
2017-Nov-08 19:30N 40°27' E 017°14'1 1.5
2017-Nov-08 19:00N 40°27' E 017°15'2 4.8
2017-Nov-08 18:29N 40°29' E 017°13'2 4.8
2017-Nov-08 18:00N 40°27' E 017°15'0 0.6
2017-Nov-08 17:28N 40°27' E 017°14'1 2.4
2017-Nov-08 16:59N 40°27' E 017°13'2 3.5
2017-Nov-08 16:30N 40°27' E 017°15'1 2.0
2017-Nov-08 16:00N 40°27' E 017°14'1 1.4
2017-Nov-08 15:30N 40°28' E 017°13'1 1.1
2017-Nov-08 15:01N 40°28' E 017°13'1 1.2
2017-Nov-08 14:30N 40°29' E 017°13'0 0.3
2017-Nov-08 14:00N 40°29' E 017°13'0 0.5
2017-Nov-08 13:28N 40°29' E 017°13'0 0.0
2017-Nov-08 12:58N 40°29' E 017°13'0 0.0
2017-Nov-08 12:28N 40°29' E 017°13'0 0.0
2017-Nov-08 11:58N 40°29' E 017°13'0 0.0
2017-Nov-08 11:28N 40°29' E 017°13'0 0.0
2017-Nov-08 10:58N 40°29' E 017°13'0 0.0
2017-Nov-08 10:28N 40°29' E 017°13'1 1.2
2017-Nov-08 09:59N 40°28' E 017°12'1 2.3
2017-Nov-08 09:29N 40°27' E 017°13'0 0.2
2017-Nov-08 08:58N 40°27' E 017°13'0 0.1
2017-Nov-08 08:28N 40°27' E 017°13'0 0.1
2017-Nov-08 07:58N 40°27' E 017°13'0 0.1
2017-Nov-08 07:28N 40°27' E 017°13'1 2.9
2017-Nov-08 07:00N 40°28' E 017°12'0 0.1
2017-Nov-08 06:30N 40°28' E 017°13'1 1.1
2017-Nov-08 05:59N 40°29' E 017°13'0 0.0
2017-Nov-08 05:29N 40°29' E 017°13'0 0.0
2017-Nov-08 04:59N 40°29' E 017°13'0 0.0
2017-Nov-08 04:29N 40°29' E 017°13'0 0.0
2017-Nov-08 03:59N 40°29' E 017°13'0 0.0
2017-Nov-08 03:29N 40°29' E 017°13'0 0.0
2017-Nov-08 02:59N 40°29' E 017°13'0 0.0
2017-Nov-08 02:29N 40°29' E 017°13'0 0.0
2017-Nov-08 01:59N 40°29' E 017°13'0 0.0
2017-Nov-08 01:29N 40°29' E 017°13'0 0.0
2017-Nov-08 00:59N 40°29' E 017°13'0 0.0
2017-Nov-08 00:29N 40°29' E 017°13'0 0.0
2017-Nov-07 23:59N 40°29' E 017°13'0 0.0
2017-Nov-07 23:29N 40°29' E 017°13'  

Dump ship's entire track history